createdAt,value
2022-08-12T00:00:36.600Z,99.90
2022-08-12T00:03:22.628Z,99.90
2022-08-12T00:06:09.461Z,99.90
2022-08-12T00:08:59.082Z,99.90
2022-08-12T00:11:46.689Z,99.90
2022-08-12T00:14:32.826Z,99.90
2022-08-12T00:17:19.644Z,99.90
2022-08-12T00:20:05.212Z,99.90
2022-08-12T00:22:58.665Z,99.90
2022-08-12T00:26:21.671Z,99.90
2022-08-12T00:29:01.108Z,99.90
2022-08-12T00:31:48.866Z,99.90
2022-08-12T00:34:36.016Z,99.90
2022-08-12T00:37:21.257Z,99.90
2022-08-12T00:40:11.044Z,99.90
2022-08-12T00:42:40.590Z,99.90
2022-08-12T00:45:09.867Z,99.90
2022-08-12T00:47:39.584Z,99.90
2022-08-12T00:50:17.870Z,99.90
2022-08-12T00:52:48.157Z,99.90
2022-08-12T00:55:19.605Z,99.90
2022-08-12T00:57:52.612Z,99.90
2022-08-12T01:00:23.899Z,99.90
2022-08-12T01:02:57.389Z,99.90
2022-08-12T01:05:45.276Z,99.90
2022-08-12T01:08:43.030Z,99.90
2022-08-12T01:11:32.190Z,99.90
2022-08-12T01:14:02.784Z,99.90
2022-08-12T01:16:31.081Z,99.90
2022-08-12T01:19:00.384Z,99.90
2022-08-12T01:22:11.885Z,99.90
2022-08-12T01:24:54.648Z,99.90
2022-08-12T01:27:24.465Z,99.90
2022-08-12T01:29:54.514Z,99.90
2022-08-12T01:32:23.671Z,99.90
2022-08-12T01:35:05.607Z,99.90
2022-08-12T01:37:37.820Z,99.90
2022-08-12T01:40:31.436Z,99.90
2022-08-12T01:43:04.077Z,99.90
2022-08-12T01:45:43.390Z,99.90
2022-08-12T01:48:39.326Z,99.90
2022-08-12T01:51:24.404Z,99.90
2022-08-12T01:54:12.636Z,99.90
2022-08-12T01:56:49.198Z,99.90
2022-08-12T01:59:39.572Z,99.90
2022-08-12T02:02:11.735Z,99.90
2022-08-12T02:05:10.765Z,99.90
2022-08-12T02:08:05.037Z,99.90
2022-08-12T02:11:02.077Z,99.90
2022-08-12T02:14:13.462Z,99.90
2022-08-12T02:17:05.633Z,99.90
2022-08-12T02:19:49.112Z,99.90
2022-08-12T02:22:28.682Z,99.90
2022-08-12T02:25:04.463Z,99.90
2022-08-12T02:27:39.578Z,99.90
2022-08-12T02:30:12.226Z,99.90
2022-08-12T02:32:42.795Z,99.90
2022-08-12T02:35:14.950Z,99.90
2022-08-12T02:37:45.510Z,99.90
2022-08-12T02:40:15.276Z,99.90
2022-08-12T02:42:52.196Z,99.90
2022-08-12T02:45:33.500Z,99.90
2022-08-12T02:48:07.495Z,99.90
2022-08-12T02:50:39.072Z,99.90
2022-08-12T02:53:08.048Z,99.90
2022-08-12T02:55:37.360Z,99.90
2022-08-12T02:58:09.211Z,99.90
2022-08-12T03:00:43.009Z,99.90
2022-08-12T03:03:13.815Z,99.90
2022-08-12T03:05:49.397Z,99.90
2022-08-12T03:08:32.113Z,99.90
2022-08-12T03:11:04.792Z,99.90
2022-08-12T03:13:39.011Z,99.90
2022-08-12T03:16:09.286Z,99.90
2022-08-12T03:18:38.147Z,99.90
2022-08-12T03:21:06.438Z,99.90
2022-08-12T03:23:37.513Z,99.90
2022-08-12T03:26:05.640Z,99.90
2022-08-12T03:28:54.459Z,99.90
2022-08-12T03:31:25.987Z,99.90
2022-08-12T03:34:01.241Z,99.90
2022-08-12T03:36:33.561Z,99.90
2022-08-12T03:39:36.016Z,99.90
2022-08-12T03:42:23.105Z,99.90
2022-08-12T03:45:15.978Z,99.90
2022-08-12T03:48:07.599Z,99.90
2022-08-12T03:50:53.443Z,99.90
2022-08-12T03:53:43.841Z,99.90
2022-08-12T03:56:29.249Z,99.90
2022-08-12T03:59:18.284Z,99.90
2022-08-12T04:01:52.564Z,99.90
2022-08-12T04:04:23.738Z,99.90
2022-08-12T04:06:52.362Z,99.90
2022-08-12T04:09:22.243Z,99.90
2022-08-12T04:12:08.856Z,99.90
2022-08-12T04:14:37.723Z,99.90
2022-08-12T04:17:08.413Z,99.90
2022-08-12T04:19:38.955Z,99.90
2022-08-12T04:22:07.065Z,99.90
2022-08-12T04:24:36.714Z,99.90
2022-08-12T04:27:09.464Z,99.90
2022-08-12T04:30:30.098Z,99.90
2022-08-12T04:32:26.506Z,99.90
2022-08-12T04:34:56.464Z,99.90
2022-08-12T04:37:24.714Z,99.90
2022-08-12T04:39:54.152Z,99.90
2022-08-12T04:42:25.629Z,99.90
2022-08-12T04:44:53.687Z,99.90
2022-08-12T04:47:22.863Z,99.90
2022-08-12T04:49:50.982Z,99.90
2022-08-12T04:52:21.952Z,99.90
2022-08-12T04:54:53.364Z,99.90
2022-08-12T04:57:21.335Z,99.90
2022-08-12T04:59:49.662Z,99.90
2022-08-12T05:02:20.995Z,99.90
2022-08-12T05:04:51.517Z,99.90
2022-08-12T05:07:21.901Z,99.90
2022-08-12T05:09:59.714Z,99.90
2022-08-12T05:12:34.381Z,99.90
2022-08-12T05:15:02.601Z,99.90
2022-08-12T05:17:30.903Z,99.90
2022-08-12T05:19:59.771Z,99.90
2022-08-12T05:22:30.241Z,99.90
2022-08-12T05:25:06.778Z,99.90
2022-08-12T05:27:34.894Z,99.90
2022-08-12T05:30:07.424Z,99.90
2022-08-12T05:32:37.619Z,99.90
2022-08-12T05:35:08.148Z,99.90
2022-08-12T05:37:37.580Z,99.90
2022-08-12T05:40:11.207Z,99.90
2022-08-12T05:42:39.959Z,99.90
2022-08-12T05:45:09.486Z,99.90
2022-08-12T05:47:53.464Z,99.90
2022-08-12T05:50:22.610Z,99.90
2022-08-12T05:52:53.035Z,99.90
2022-08-12T05:55:25.825Z,99.90
2022-08-12T05:57:57.354Z,99.90
2022-08-12T06:00:26.525Z,99.90
2022-08-12T06:02:57.212Z,99.90
2022-08-12T06:05:25.273Z,99.90
2022-08-12T06:08:02.259Z,99.90
2022-08-12T06:10:33.049Z,99.90
2022-08-12T06:13:02.613Z,99.90
2022-08-12T06:15:34.763Z,99.90
2022-08-12T06:18:13.645Z,99.90
2022-08-12T06:20:44.076Z,99.90
2022-08-12T06:23:15.335Z,99.90
2022-08-12T06:25:43.633Z,99.90
2022-08-12T06:28:17.691Z,99.90
2022-08-12T06:31:08.290Z,99.90
2022-08-12T06:33:55.059Z,99.90
2022-08-12T06:36:29.755Z,99.90
2022-08-12T06:39:03.442Z,99.90
2022-08-12T06:42:31.114Z,99.90
2022-08-12T06:44:36.936Z,99.90
2022-08-12T06:47:05.250Z,99.90
2022-08-12T06:49:36.883Z,99.90
2022-08-12T06:52:07.415Z,99.90
2022-08-12T06:54:36.921Z,99.90
2022-08-12T06:58:07.594Z,99.90
2022-08-12T06:59:53.140Z,99.90
2022-08-12T07:02:22.694Z,99.90
2022-08-12T07:04:50.794Z,99.90
2022-08-12T07:07:19.769Z,99.90
2022-08-12T07:10:03.854Z,99.90
2022-08-12T07:12:35.284Z,99.90
2022-08-12T07:15:03.480Z,99.90
2022-08-12T07:17:36.571Z,99.90
2022-08-12T07:20:07.064Z,99.90
2022-08-12T07:22:37.797Z,99.90
2022-08-12T07:25:27.290Z,99.90
2022-08-12T07:27:56.346Z,99.90
2022-08-12T07:30:24.692Z,99.90
2022-08-12T07:32:53.122Z,99.90
2022-08-12T07:35:21.470Z,99.90
2022-08-12T07:37:50.547Z,99.90
2022-08-12T07:40:21.551Z,99.90
2022-08-12T07:42:49.963Z,99.90
2022-08-12T07:45:19.622Z,99.90
2022-08-12T07:47:48.901Z,99.90
2022-08-12T07:50:23.608Z,99.90
2022-08-12T07:52:52.223Z,99.90
2022-08-12T07:55:21.971Z,99.90
2022-08-12T07:57:57.838Z,99.90
2022-08-12T08:00:26.424Z,99.90
2022-08-12T08:02:55.147Z,99.90
2022-08-12T08:05:25.897Z,99.90
2022-08-12T08:07:55.713Z,99.90
2022-08-12T08:10:26.862Z,99.90
2022-08-12T08:12:54.142Z,99.90
2022-08-12T08:15:38.528Z,99.90
2022-08-12T08:18:16.039Z,99.90
2022-08-12T08:20:56.437Z,99.90
2022-08-12T08:23:56.372Z,99.90
2022-08-12T08:26:30.859Z,99.90
2022-08-12T08:28:59.632Z,99.90
2022-08-12T08:31:28.305Z,99.90
2022-08-12T08:34:05.273Z,99.90
2022-08-12T08:36:44.012Z,99.90
2022-08-12T08:39:16.977Z,99.90
2022-08-12T08:42:20.193Z,99.90
2022-08-12T08:44:58.127Z,99.90
2022-08-12T08:47:26.591Z,99.90
2022-08-12T08:49:57.686Z,99.90
2022-08-12T08:52:46.648Z,99.90
2022-08-12T08:55:20.871Z,99.90
2022-08-12T08:57:55.741Z,99.90
2022-08-12T09:00:24.668Z,99.90
2022-08-12T09:02:59.338Z,99.90
2022-08-12T09:05:28.306Z,99.90
2022-08-12T09:12:07.146Z,99.90
2022-08-12T09:17:03.143Z,99.90
2022-08-12T09:19:33.531Z,99.90
2022-08-12T09:22:04.871Z,99.90
2022-08-12T09:24:33.281Z,99.90
2022-08-12T09:27:03.719Z,99.90
2022-08-12T09:30:12.515Z,99.90
2022-08-12T09:32:56.986Z,99.90
2022-08-12T09:35:18.606Z,99.90
2022-08-12T09:37:59.075Z,99.90
2022-08-12T09:40:57.610Z,99.90
2022-08-12T09:43:38.646Z,99.90
2022-08-12T09:46:25.554Z,99.90
2022-08-12T09:48:57.346Z,99.90
2022-08-12T09:51:37.764Z,99.90
2022-08-12T09:54:30.862Z,99.90
2022-08-12T09:58:08.110Z,99.90
2022-08-12T10:00:35.212Z,99.90
2022-08-12T10:03:32.465Z,99.90
2022-08-12T10:06:31.952Z,99.90
2022-08-12T10:09:08.519Z,99.90
2022-08-12T10:12:12.065Z,99.90
2022-08-12T10:14:54.496Z,99.90
2022-08-12T10:17:34.920Z,99.90
2022-08-12T10:20:36.464Z,99.90
2022-08-12T10:23:07.011Z,99.90
2022-08-12T10:26:34.796Z,99.90
2022-08-12T10:29:15.752Z,99.90
2022-08-12T10:32:45.204Z,99.90
2022-08-12T10:35:20.512Z,99.90
2022-08-12T10:38:38.064Z,99.90
2022-08-12T10:41:07.754Z,99.90
2022-08-12T10:43:55.005Z,99.90
2022-08-12T10:46:31.183Z,99.90
2022-08-12T10:49:05.585Z,99.90
2022-08-12T10:52:04.933Z,99.90
2022-08-12T10:54:49.255Z,99.90
2022-08-12T10:57:50.413Z,99.90
2022-08-12T11:01:25.922Z,99.90
2022-08-12T11:04:27.369Z,99.90
2022-08-12T11:07:05.444Z,99.90
2022-08-12T11:09:41.574Z,99.90
2022-08-12T11:12:56.718Z,99.90
2022-08-12T11:15:24.163Z,99.90
2022-08-12T11:18:27.156Z,99.90
2022-08-12T11:21:16.659Z,99.90
2022-08-12T11:24:31.668Z,99.90
2022-08-12T11:27:21.286Z,99.90
2022-08-12T11:30:30.646Z,99.90
2022-08-12T11:33:11.690Z,99.90
2022-08-12T11:39:28.440Z,99.90
2022-08-12T11:42:35.207Z,99.90
2022-08-12T11:45:10.213Z,98.80
2022-08-12T11:51:57.851Z,99.90
2022-08-12T11:54:54.402Z,99.90
2022-08-12T11:58:48.860Z,99.90
2022-08-12T12:03:17.352Z,96.70
2022-08-12T12:05:48.822Z,97.00
2022-08-12T12:08:39.093Z,94.40
2022-08-12T12:11:16.247Z,94.30
2022-08-12T12:14:06.683Z,94.40
2022-08-12T12:16:50.832Z,95.90
2022-08-12T12:19:19.983Z,96.60
2022-08-12T12:21:52.857Z,96.20
2022-08-12T12:24:22.655Z,95.50
2022-08-12T12:26:59.544Z,95.60
2022-08-12T12:30:19.314Z,96.70
2022-08-12T12:32:31.894Z,95.20
2022-08-12T12:35:13.543Z,95.20
2022-08-12T12:38:14.750Z,95.20
2022-08-12T12:40:53.470Z,94.30
2022-08-12T12:43:43.673Z,94.00
2022-08-12T12:46:25.452Z,94.20
2022-08-12T12:48:57.226Z,91.90
2022-08-12T12:51:48.608Z,89.00
2022-08-12T12:54:18.871Z,91.90
2022-08-12T12:57:05.355Z,91.80
2022-08-12T12:59:56.436Z,90.60
2022-08-12T13:05:16.233Z,90.00
2022-08-12T13:07:49.577Z,89.40
2022-08-12T13:10:30.770Z,90.20
2022-08-12T13:13:09.643Z,89.20
2022-08-12T13:15:59.513Z,91.50
2022-08-12T13:18:36.719Z,91.20
2022-08-12T13:21:15.851Z,91.00
2022-08-12T13:24:00.890Z,88.30
2022-08-12T13:26:34.776Z,90.30
2022-08-12T13:29:16.116Z,90.60
2022-08-12T13:32:17.788Z,89.00
2022-08-12T13:34:35.647Z,90.00
2022-08-12T13:37:09.894Z,85.40
2022-08-12T13:39:38.561Z,88.10
2022-08-12T13:42:14.483Z,88.30
2022-08-12T13:44:43.324Z,89.10
2022-08-12T13:47:19.671Z,90.40
2022-08-12T13:49:55.186Z,89.70
2022-08-12T13:52:25.824Z,84.80
2022-08-12T13:54:54.162Z,85.60
2022-08-12T13:57:26.511Z,85.90
2022-08-12T14:00:00.518Z,85.80
2022-08-12T14:02:32.464Z,86.60
2022-08-12T14:05:00.604Z,84.20
2022-08-12T14:07:48.832Z,83.90
2022-08-12T14:10:38.971Z,85.50
2022-08-12T14:14:03.427Z,85.30
2022-08-12T14:16:37.402Z,86.60
2022-08-12T14:19:10.590Z,83.60
2022-08-12T14:21:59.743Z,89.60
2022-08-12T14:24:40.450Z,89.70
2022-08-12T14:27:11.213Z,87.90
2022-08-12T14:30:04.333Z,88.70
2022-08-12T14:32:35.675Z,89.40
2022-08-12T14:35:06.538Z,89.60
2022-08-12T14:37:57.414Z,90.50
2022-08-12T14:40:29.837Z,90.90
2022-08-12T14:43:02.753Z,91.50
2022-08-12T14:45:45.054Z,91.40
2022-08-12T14:48:24.520Z,91.70
2022-08-12T14:52:16.247Z,92.10
2022-08-12T14:59:56.736Z,91.40
2022-08-12T15:02:28.689Z,93.00
2022-08-12T15:04:59.674Z,93.30
2022-08-12T15:07:48.696Z,91.50
2022-08-12T15:10:32.417Z,91.10
2022-08-12T15:13:08.784Z,91.40
2022-08-12T15:15:44.255Z,91.20
2022-08-12T15:18:15.966Z,91.20
2022-08-12T15:20:51.246Z,92.60
2022-08-12T15:23:21.381Z,92.20
2022-08-12T15:26:02.706Z,91.60
2022-08-12T15:28:35.487Z,92.20
2022-08-12T15:31:09.572Z,92.50
2022-08-12T15:33:54.097Z,92.20
2022-08-12T15:36:54.214Z,91.50
2022-08-12T15:39:17.641Z,92.30
2022-08-12T15:41:49.038Z,92.30
2022-08-12T15:44:42.260Z,91.20
2022-08-12T15:47:09.113Z,91.30
2022-08-12T15:49:54.568Z,90.90
2022-08-12T15:52:29.810Z,91.80
2022-08-12T15:55:04.927Z,90.60
2022-08-12T15:57:36.785Z,88.60
2022-08-12T16:00:09.477Z,88.10
2022-08-12T16:02:58.374Z,88.60
2022-08-12T16:06:19.016Z,88.80
2022-08-12T16:08:26.975Z,89.50
2022-08-12T16:10:56.377Z,90.60
2022-08-12T16:13:32.792Z,88.20
2022-08-12T16:16:23.140Z,88.40
2022-08-12T16:18:59.532Z,87.60
2022-08-12T16:21:52.361Z,89.60
2022-08-12T16:24:20.474Z,87.30
2022-08-12T16:26:51.536Z,86.10
2022-08-12T16:29:38.509Z,88.40
2022-08-12T16:32:31.130Z,88.00
2022-08-12T16:35:01.397Z,89.10
2022-08-12T16:38:28.029Z,85.60
2022-08-12T16:40:22.912Z,86.60
2022-08-12T16:42:54.012Z,87.30
2022-08-12T16:46:04.482Z,85.90
2022-08-12T16:48:33.822Z,86.90
2022-08-12T16:51:08.175Z,86.40
2022-08-12T16:53:44.175Z,86.50
2022-08-12T16:56:32.165Z,86.30
2022-08-12T16:59:00.690Z,87.70
2022-08-12T17:01:30.306Z,86.40
2022-08-12T17:04:08.693Z,87.40
2022-08-12T17:06:41.617Z,88.00
2022-08-12T17:09:17.133Z,87.50
2022-08-12T17:11:49.559Z,88.80
2022-08-12T17:14:23.646Z,88.40
2022-08-12T17:16:55.075Z,88.40
2022-08-12T17:20:34.893Z,88.50
2022-08-12T17:22:16.730Z,88.40
2022-08-12T17:24:55.567Z,88.70
2022-08-12T17:27:26.577Z,88.90
2022-08-12T17:30:04.575Z,90.10
2022-08-12T17:32:39.994Z,90.10
2022-08-12T17:35:30.042Z,89.20
2022-08-12T17:38:11.890Z,89.50
2022-08-12T17:40:40.527Z,90.20
2022-08-12T17:43:54.938Z,89.00
2022-08-12T17:46:01.984Z,90.00
2022-08-12T17:48:34.877Z,90.70
2022-08-12T17:51:15.407Z,91.10
2022-08-12T17:54:11.444Z,91.10
2022-08-12T17:56:37.865Z,91.20
2022-08-12T17:59:12.123Z,91.70
2022-08-12T18:01:45.573Z,91.90
2022-08-12T18:04:22.820Z,92.10
2022-08-12T18:07:06.391Z,92.00
2022-08-12T18:09:37.567Z,92.60
2022-08-12T18:12:34.795Z,93.00
2022-08-12T18:15:08.895Z,93.70
2022-08-12T18:17:39.492Z,93.90
2022-08-12T18:20:15.564Z,94.20
2022-08-12T18:22:45.355Z,94.80
2022-08-12T18:26:14.168Z,95.50
2022-08-12T18:28:29.067Z,96.50
2022-08-12T18:31:03.881Z,97.10
2022-08-12T18:33:41.588Z,98.30
2022-08-12T18:36:21.158Z,99.40
2022-08-12T18:38:56.203Z,99.90
2022-08-12T18:41:34.230Z,99.90
2022-08-12T18:44:08.079Z,99.90
2022-08-12T18:46:54.035Z,99.90
2022-08-12T18:49:30.717Z,99.90
2022-08-12T18:52:08.168Z,99.90
2022-08-12T18:54:53.833Z,99.90
2022-08-12T18:58:05.828Z,99.90
2022-08-12T19:00:21.073Z,99.90
2022-08-12T19:02:53.835Z,99.90
2022-08-12T19:05:53.521Z,99.90
2022-08-12T19:08:14.153Z,99.90
2022-08-12T19:10:49.995Z,99.90
2022-08-12T19:13:36.801Z,99.90
2022-08-12T19:16:11.138Z,99.90
2022-08-12T19:18:44.749Z,99.90
2022-08-12T19:21:16.970Z,99.90
2022-08-12T19:24:10.633Z,99.90
2022-08-12T19:26:38.770Z,99.90
2022-08-12T19:29:08.742Z,99.90
2022-08-12T19:31:58.225Z,99.90
2022-08-12T19:35:32.829Z,99.90
2022-08-12T19:37:26.592Z,99.90
2022-08-12T19:40:09.872Z,99.90
2022-08-12T19:43:00.623Z,99.90
2022-08-12T19:45:43.393Z,99.90
2022-08-12T19:48:19.418Z,99.90
2022-08-12T19:50:52.753Z,99.90
2022-08-12T19:53:22.999Z,99.90
2022-08-12T19:55:53.461Z,99.90
2022-08-12T19:58:22.848Z,99.90
2022-08-12T20:00:53.583Z,99.90
2022-08-12T20:03:38.382Z,99.90
2022-08-12T20:06:15.978Z,99.90
2022-08-12T20:08:49.377Z,99.90
2022-08-12T20:12:14.636Z,99.90
2022-08-12T20:14:17.906Z,99.90
2022-08-12T20:16:52.338Z,99.90
2022-08-12T20:19:52.698Z,99.90
2022-08-12T20:22:24.407Z,99.90
2022-08-12T20:25:01.248Z,99.90
2022-08-12T20:28:03.280Z,99.90
2022-08-12T20:30:37.705Z,99.90
2022-08-12T20:33:17.430Z,99.90
2022-08-12T20:36:13.635Z,99.90
2022-08-12T20:38:46.767Z,99.90
2022-08-12T20:41:19.322Z,99.90
2022-08-12T20:43:50.401Z,99.90
2022-08-12T20:46:19.457Z,99.90
2022-08-12T20:48:54.934Z,99.90
2022-08-12T20:51:27.698Z,99.90
2022-08-12T20:53:59.472Z,99.90
2022-08-12T20:56:33.003Z,99.90
2022-08-12T20:59:04.845Z,99.90
2022-08-12T21:01:46.230Z,99.90
2022-08-12T21:04:35.867Z,99.90
2022-08-12T21:07:08.936Z,99.90
2022-08-12T21:09:42.682Z,99.90
2022-08-12T21:12:28.309Z,99.90
2022-08-12T21:15:23.565Z,99.90
2022-08-12T21:18:15.563Z,99.90
2022-08-12T21:20:52.470Z,99.90
2022-08-12T21:23:22.980Z,99.90
2022-08-12T21:26:01.067Z,99.90
2022-08-12T21:28:31.684Z,99.90
2022-08-12T21:32:35.173Z,99.90
2022-08-12T21:34:07.451Z,99.90
2022-08-12T21:36:39.759Z,99.90
2022-08-12T21:39:20.127Z,99.90
2022-08-12T21:41:52.643Z,99.90
2022-08-12T21:44:59.086Z,99.90
2022-08-12T21:47:21.574Z,99.90
2022-08-12T21:50:02.495Z,99.90
2022-08-12T21:52:34.918Z,99.90
2022-08-12T21:55:08.481Z,99.90
2022-08-12T21:57:53.773Z,99.90
2022-08-12T22:00:32.189Z,99.90
2022-08-12T22:04:01.347Z,99.90
2022-08-12T22:06:31.584Z,99.90
2022-08-12T22:09:16.175Z,99.90
2022-08-12T22:11:56.951Z,99.90
2022-08-12T22:14:30.336Z,99.90
2022-08-12T22:17:00.585Z,99.90
2022-08-12T22:19:28.915Z,99.90
2022-08-12T22:22:04.024Z,99.90
2022-08-12T22:24:33.510Z,99.90
2022-08-12T22:27:18.070Z,99.90
2022-08-12T22:30:16.330Z,99.90
2022-08-12T22:32:50.043Z,99.90
2022-08-12T22:35:56.022Z,99.90
2022-08-12T22:38:23.765Z,99.90
2022-08-12T22:40:54.287Z,99.90
2022-08-12T22:43:58.865Z,99.90
2022-08-12T22:46:52.986Z,99.90
2022-08-12T22:49:26.003Z,99.90
2022-08-12T22:52:18.578Z,99.90
2022-08-12T22:55:02.523Z,99.90
2022-08-12T22:57:49.223Z,99.90
2022-08-12T23:00:24.290Z,99.90
2022-08-12T23:03:02.905Z,99.90
2022-08-12T23:05:36.857Z,99.90
2022-08-12T23:08:22.253Z,99.90
2022-08-12T23:10:51.010Z,99.90
2022-08-12T23:13:42.311Z,99.90
2022-08-12T23:16:28.065Z,99.90
2022-08-12T23:19:09.580Z,99.90
2022-08-12T23:22:06.331Z,99.90
2022-08-12T23:24:31.427Z,99.90
2022-08-12T23:27:18.325Z,99.90
2022-08-12T23:30:17.638Z,99.90
2022-08-12T23:32:37.285Z,99.90
2022-08-12T23:35:09.211Z,99.90
2022-08-12T23:37:53.779Z,99.90
2022-08-12T23:40:24.504Z,99.90
2022-08-12T23:42:54.869Z,99.90
2022-08-12T23:45:31.623Z,99.90
2022-08-12T23:48:02.733Z,99.90
2022-08-12T23:50:34.317Z,99.90
2022-08-12T23:53:05.679Z,99.90
2022-08-12T23:55:38.274Z,99.90
2022-08-12T23:58:17.507Z,99.90
